createdAt,value
2024-05-09T00:01:25.369Z,26.12
2024-05-09T00:02:25.539Z,26.14
2024-05-09T00:03:25.564Z,26.15
2024-05-09T00:04:25.671Z,26.14
2024-05-09T00:05:25.782Z,26.12
2024-05-09T00:06:25.793Z,26.14
2024-05-09T00:07:25.892Z,26.14
2024-05-09T00:08:26.078Z,26.15
2024-05-09T00:09:26.063Z,26.14
2024-05-09T00:10:34.594Z,26.14
2024-05-09T00:11:27.256Z,26.15
2024-05-09T00:12:26.353Z,26.14
2024-05-09T00:13:26.197Z,26.15
2024-05-09T00:14:26.344Z,26.14
2024-05-09T00:15:26.210Z,26.14
2024-05-09T00:16:26.219Z,26.12
2024-05-09T00:17:26.375Z,26.11
2024-05-09T00:18:26.374Z,26.14
2024-05-09T00:19:26.341Z,26.14
2024-05-09T00:20:33.249Z,26.12
2024-05-09T00:21:27.237Z,26.14
2024-05-09T00:22:26.256Z,26.15
2024-05-09T00:23:26.335Z,26.14
2024-05-09T00:24:26.304Z,26.15
2024-05-09T00:25:26.287Z,26.14
2024-05-09T00:26:26.295Z,26.15
2024-05-09T00:27:26.281Z,26.14
2024-05-09T00:28:26.269Z,26.12
2024-05-09T00:29:26.388Z,26.12
2024-05-09T00:30:33.331Z,26.15
2024-05-09T00:31:27.377Z,26.14
2024-05-09T00:32:26.681Z,26.14
2024-05-09T00:33:26.711Z,26.11
2024-05-09T00:34:26.502Z,26.15
2024-05-09T00:35:26.522Z,26.14
2024-05-09T00:36:26.412Z,26.12
2024-05-09T00:37:26.396Z,26.15
2024-05-09T00:38:26.469Z,26.12
2024-05-09T00:39:26.414Z,26.14
2024-05-09T00:40:34.497Z,26.12
2024-05-09T00:41:27.640Z,26.12
2024-05-09T00:42:26.499Z,26.12
2024-05-09T00:43:26.471Z,26.12
2024-05-09T00:44:26.593Z,26.11
2024-05-09T00:45:26.478Z,26.12
2024-05-09T00:46:26.489Z,26.14
2024-05-09T00:47:26.775Z,26.12
2024-05-09T00:48:26.843Z,26.11
2024-05-09T00:49:26.732Z,26.11
2024-05-09T00:50:35.319Z,26.11
2024-05-09T00:51:27.526Z,26.12
2024-05-09T00:52:26.527Z,26.12
2024-05-09T00:53:26.566Z,26.14
2024-05-09T00:54:26.545Z,26.12
2024-05-09T00:55:26.589Z,26.12
2024-05-09T00:56:26.688Z,26.12
2024-05-09T00:57:26.612Z,26.11
2024-05-09T00:58:26.583Z,26.11
2024-05-09T00:59:26.827Z,26.12
2024-05-09T01:00:34.627Z,26.12
2024-05-09T01:01:27.614Z,26.14
2024-05-09T01:02:26.735Z,26.11
2024-05-09T01:03:26.986Z,26.09
2024-05-09T01:04:26.648Z,26.09
2024-05-09T01:05:26.635Z,26.11
2024-05-09T01:06:26.571Z,26.08
2024-05-09T01:07:26.571Z,26.11
2024-05-09T01:08:26.598Z,26.11
2024-05-09T01:09:26.593Z,26.09
2024-05-09T01:11:26.739Z,26.09
2024-05-09T01:12:26.813Z,26.09
2024-05-09T01:13:26.737Z,26.11
2024-05-09T01:14:26.919Z,26.11
2024-05-09T01:15:26.830Z,26.09
2024-05-09T01:16:26.872Z,26.07
2024-05-09T01:17:27.002Z,26.08
2024-05-09T01:18:27.067Z,26.08
2024-05-09T01:19:27.032Z,26.11
2024-05-09T01:20:36.948Z,26.09
2024-05-09T01:21:28.063Z,26.09
2024-05-09T01:22:27.023Z,26.11
2024-05-09T01:23:27.042Z,26.09
2024-05-09T01:24:27.004Z,26.08
2024-05-09T01:25:27.005Z,26.09
2024-05-09T01:26:27.066Z,26.08
2024-05-09T01:27:26.990Z,26.11
2024-05-09T01:28:26.974Z,26.08
2024-05-09T01:29:27.048Z,26.09
2024-05-09T01:30:33.852Z,26.11
2024-05-09T01:31:27.940Z,26.11
2024-05-09T01:32:27.096Z,26.11
2024-05-09T01:33:27.275Z,26.11
2024-05-09T01:34:26.903Z,26.09
2024-05-09T01:35:27.029Z,26.11
2024-05-09T01:36:26.882Z,26.09
2024-05-09T01:37:26.888Z,26.08
2024-05-09T01:38:26.922Z,26.12
2024-05-09T01:39:26.869Z,26.08
2024-05-09T01:40:36.303Z,26.08
2024-05-09T01:41:27.886Z,26.09
2024-05-09T01:42:26.845Z,26.09
2024-05-09T01:43:26.822Z,26.08
2024-05-09T01:44:26.822Z,26.08
2024-05-09T01:45:26.788Z,26.09
2024-05-09T01:46:26.776Z,26.08
2024-05-09T01:47:26.995Z,26.08
2024-05-09T01:48:26.966Z,26.09
2024-05-09T01:49:26.858Z,26.07
2024-05-09T01:50:37.378Z,26.08
2024-05-09T01:51:27.752Z,26.09
2024-05-09T01:52:26.738Z,26.09
2024-05-09T01:53:26.756Z,26.09
2024-05-09T01:54:26.747Z,26.09
2024-05-09T01:55:26.741Z,26.12
2024-05-09T01:56:26.746Z,26.07
2024-05-09T01:57:26.703Z,26.07
2024-05-09T01:58:26.702Z,26.07
2024-05-09T01:59:26.782Z,26.07
2024-05-09T02:00:36.312Z,26.05
2024-05-09T02:01:27.722Z,26.08
2024-05-09T02:02:26.705Z,26.07
2024-05-09T02:03:26.811Z,26.07
2024-05-09T02:04:26.772Z,26.09
2024-05-09T02:05:26.694Z,26.08
2024-05-09T02:06:26.649Z,26.07
2024-05-09T02:07:26.657Z,26.09
2024-05-09T02:08:26.689Z,26.07
2024-05-09T02:09:26.611Z,26.07
2024-05-09T02:10:32.284Z,26.08
2024-05-09T02:11:27.672Z,26.05
2024-05-09T02:12:26.701Z,26.08
2024-05-09T02:13:26.628Z,26.08
2024-05-09T02:14:26.852Z,26.08
2024-05-09T02:15:26.602Z,26.07
2024-05-09T02:16:26.621Z,26.07
2024-05-09T02:17:26.862Z,26.08
2024-05-09T02:18:26.732Z,26.09
2024-05-09T02:19:26.720Z,26.09
2024-05-09T02:20:33.517Z,26.08
2024-05-09T02:21:27.597Z,26.08
2024-05-09T02:22:26.595Z,26.05
2024-05-09T02:23:26.605Z,26.05
2024-05-09T02:24:26.567Z,26.07
2024-05-09T02:25:26.579Z,26.08
2024-05-09T02:26:26.638Z,26.07
2024-05-09T02:27:26.579Z,26.08
2024-05-09T02:28:26.580Z,26.05
2024-05-09T02:29:26.679Z,26.07
2024-05-09T02:30:36.248Z,26.05
2024-05-09T02:31:27.675Z,26.07
2024-05-09T02:32:26.804Z,26.05
2024-05-09T02:33:26.861Z,26.05
2024-05-09T02:34:26.717Z,26.04
2024-05-09T02:35:26.851Z,26.07
2024-05-09T02:36:26.697Z,26.04
2024-05-09T02:37:26.679Z,26.05
2024-05-09T02:38:26.770Z,26.04
2024-05-09T02:39:26.691Z,26.04
2024-05-09T02:40:35.115Z,26.07
2024-05-09T02:41:27.782Z,26.07
2024-05-09T02:42:26.686Z,26.05
2024-05-09T02:43:26.726Z,26.04
2024-05-09T02:44:26.820Z,26.07
2024-05-09T02:45:26.706Z,26.04
2024-05-09T02:46:26.712Z,26.05
2024-05-09T02:47:26.842Z,26.05
2024-05-09T02:48:26.844Z,26.07
2024-05-09T02:49:26.813Z,26.04
2024-05-09T02:50:34.363Z,26.05
2024-05-09T02:51:27.754Z,26.05
2024-05-09T02:52:26.789Z,26.04
2024-05-09T02:53:26.830Z,26.05
2024-05-09T02:54:26.750Z,26.07
2024-05-09T02:55:26.790Z,26.04
2024-05-09T02:56:26.852Z,26.04
2024-05-09T02:57:26.816Z,26.04
2024-05-09T02:58:26.826Z,26.05
2024-05-09T02:59:26.906Z,26.05
2024-05-09T03:00:35.161Z,26.05
2024-05-09T03:01:27.891Z,26.04
2024-05-09T03:02:26.912Z,26.02
2024-05-09T03:03:27.507Z,26.05
2024-05-09T03:04:27.459Z,26.02
2024-05-09T03:05:26.879Z,26.02
2024-05-09T03:06:26.845Z,26.05
2024-05-09T03:07:26.872Z,26.05
2024-05-09T03:08:26.982Z,26.01
2024-05-09T03:09:26.831Z,26.04
2024-05-09T03:11:27.040Z,26.05
2024-05-09T03:12:27.106Z,26.05
2024-05-09T03:13:27.204Z,26.05
2024-05-09T03:14:27.195Z,26.02
2024-05-09T03:15:27.158Z,26.04
2024-05-09T03:16:27.193Z,26.04
2024-05-09T03:17:27.425Z,26.04
2024-05-09T03:18:27.460Z,26.02
2024-05-09T03:19:27.598Z,26.05
2024-05-09T03:20:32.978Z,26.02
2024-05-09T03:21:28.563Z,26.04
2024-05-09T03:22:27.582Z,26.04
2024-05-09T03:23:27.603Z,26.04
2024-05-09T03:24:27.560Z,26.05
2024-05-09T03:25:27.554Z,26.01
2024-05-09T03:26:27.674Z,26.04
2024-05-09T03:27:27.580Z,26.02
2024-05-09T03:28:27.595Z,26.04
2024-05-09T03:29:27.691Z,26.05
2024-05-09T03:30:36.028Z,26.02
2024-05-09T03:31:28.596Z,26.02
2024-05-09T03:32:27.837Z,26.04
2024-05-09T03:33:27.779Z,26.01
2024-05-09T03:34:27.648Z,26.05
2024-05-09T03:35:27.667Z,26.04
2024-05-09T03:36:27.630Z,26.01
2024-05-09T03:37:27.623Z,26.04
2024-05-09T03:38:27.730Z,26.01
2024-05-09T03:39:27.621Z,26.01
2024-05-09T03:40:30.845Z,26.02
2024-05-09T03:41:27.688Z,26.02
2024-05-09T03:42:27.664Z,26.05
2024-05-09T03:43:27.654Z,26.01
2024-05-09T03:44:27.711Z,26.01
2024-05-09T03:45:27.640Z,26.02
2024-05-09T03:46:27.660Z,26.01
2024-05-09T03:47:27.973Z,26.02
2024-05-09T03:48:27.826Z,26.01
2024-05-09T03:49:27.751Z,26.02
2024-05-09T03:50:33.703Z,26.02
2024-05-09T03:51:28.686Z,26.01
2024-05-09T03:52:27.720Z,26.00
2024-05-09T03:53:27.786Z,26.01
2024-05-09T03:54:27.713Z,26.00
2024-05-09T03:55:27.680Z,26.04
2024-05-09T03:56:27.793Z,26.02
2024-05-09T03:57:27.689Z,26.02
2024-05-09T03:58:27.698Z,26.01
2024-05-09T03:59:27.843Z,26.01
2024-05-09T04:00:35.248Z,26.00
2024-05-09T04:01:28.765Z,26.02
2024-05-09T04:02:27.770Z,26.02
2024-05-09T04:03:27.932Z,26.02
2024-05-09T04:04:27.724Z,26.01
2024-05-09T04:05:27.735Z,26.04
2024-05-09T04:06:27.723Z,26.01
2024-05-09T04:07:27.697Z,26.02
2024-05-09T04:08:27.706Z,26.02
2024-05-09T04:09:27.709Z,26.01
2024-05-09T04:10:32.807Z,26.02
2024-05-09T04:11:28.838Z,26.01
2024-05-09T04:12:27.867Z,26.00
2024-05-09T04:13:35.015Z,25.97
2024-05-09T04:14:35.058Z,25.97
2024-05-09T04:15:35.018Z,26.00
2024-05-09T04:16:34.997Z,26.00
2024-05-09T04:17:35.134Z,26.01
2024-05-09T04:18:35.095Z,26.01
2024-05-09T04:19:35.051Z,26.00
2024-05-09T04:20:39.026Z,26.02
2024-05-09T04:21:36.010Z,26.01
2024-05-09T04:22:35.213Z,26.02
2024-05-09T04:23:35.142Z,26.01
2024-05-09T04:24:35.044Z,26.02
2024-05-09T04:25:35.094Z,26.01
2024-05-09T04:26:35.135Z,26.01
2024-05-09T04:27:35.066Z,26.00
2024-05-09T04:28:35.028Z,26.00
2024-05-09T04:29:35.073Z,26.00
2024-05-09T04:30:39.205Z,26.00
2024-05-09T04:31:47.205Z,25.98
2024-05-09T04:32:47.304Z,26.01
2024-05-09T04:33:47.259Z,25.98
2024-05-09T04:34:47.228Z,25.98
2024-05-09T04:35:47.202Z,26.01
2024-05-09T04:36:47.145Z,26.00
2024-05-09T04:37:47.180Z,26.01
2024-05-09T04:38:47.201Z,26.01
2024-05-09T04:39:47.257Z,26.01
2024-05-09T04:40:47.369Z,26.01
2024-05-09T04:41:47.456Z,26.01
2024-05-09T04:42:47.524Z,25.98
2024-05-09T04:43:47.607Z,26.00
2024-05-09T04:44:47.703Z,26.01
2024-05-09T04:45:47.790Z,26.01
2024-05-09T04:46:47.964Z,26.00
2024-05-09T04:47:48.318Z,26.01
2024-05-09T04:48:48.224Z,26.01
2024-05-09T04:49:48.245Z,26.00
2024-05-09T04:50:48.376Z,26.00
2024-05-09T04:51:48.402Z,26.00
2024-05-09T04:52:48.537Z,26.02
2024-05-09T04:53:48.706Z,25.97
2024-05-09T04:54:48.718Z,26.00
2024-05-09T04:55:48.832Z,26.01
2024-05-09T04:56:48.899Z,26.00
2024-05-09T04:57:49.002Z,26.02
2024-05-09T04:58:49.102Z,25.98
2024-05-09T04:59:49.178Z,26.01
2024-05-09T05:00:49.307Z,25.97
2024-05-09T05:01:49.606Z,25.95
2024-05-09T05:02:49.592Z,25.97
2024-05-09T05:03:49.808Z,25.95
2024-05-09T05:04:49.974Z,25.95
2024-05-09T05:05:49.859Z,25.92
2024-05-09T05:06:49.882Z,25.94
2024-05-09T05:07:49.998Z,25.92
2024-05-09T05:08:50.022Z,25.91
2024-05-09T05:09:50.119Z,25.91
2024-05-09T05:10:50.400Z,25.92
2024-05-09T05:11:50.388Z,25.90
2024-05-09T05:12:50.392Z,25.90
2024-05-09T05:13:50.501Z,25.90
2024-05-09T05:14:50.547Z,25.91
2024-05-09T05:15:50.666Z,25.88
2024-05-09T05:16:50.761Z,25.91
2024-05-09T05:17:50.976Z,25.90
2024-05-09T05:18:50.980Z,25.90
2024-05-09T05:19:51.134Z,25.88
2024-05-09T05:20:51.394Z,25.91
2024-05-09T05:21:51.107Z,25.90
2024-05-09T05:22:51.226Z,25.90
2024-05-09T05:23:51.194Z,25.90
2024-05-09T05:24:51.272Z,25.90
2024-05-09T05:25:51.388Z,25.90
2024-05-09T05:26:51.330Z,25.90
2024-05-09T05:27:51.375Z,25.91
2024-05-09T05:28:51.451Z,25.91
2024-05-09T05:29:51.483Z,25.91
2024-05-09T05:30:51.535Z,25.90
2024-05-09T05:32:28.001Z,25.88
2024-05-09T05:33:28.160Z,25.85
2024-05-09T05:34:27.869Z,25.85
2024-05-09T05:35:28.030Z,25.88
2024-05-09T05:36:27.877Z,25.88
2024-05-09T05:37:27.862Z,25.87
2024-05-09T05:38:28.619Z,25.92
2024-05-09T05:39:27.847Z,25.90
2024-05-09T05:40:35.016Z,25.87
2024-05-09T05:41:28.988Z,25.90
2024-05-09T05:42:27.825Z,25.90
2024-05-09T05:43:27.815Z,25.87
2024-05-09T05:44:27.959Z,25.88
2024-05-09T05:45:27.788Z,25.88
2024-05-09T05:46:27.785Z,25.87
2024-05-09T05:47:27.947Z,25.88
2024-05-09T05:48:27.865Z,25.90
2024-05-09T05:49:27.817Z,25.88
2024-05-09T05:50:34.951Z,25.88
2024-05-09T05:51:28.747Z,25.90
2024-05-09T05:52:27.739Z,25.88
2024-05-09T05:53:27.759Z,25.87
2024-05-09T05:54:27.730Z,25.88
2024-05-09T05:55:27.694Z,25.90
2024-05-09T05:56:27.796Z,25.87
2024-05-09T05:57:27.808Z,25.88
2024-05-09T05:58:27.650Z,25.88
2024-05-09T05:59:27.663Z,25.88
2024-05-09T06:00:34.447Z,25.90
2024-05-09T06:01:28.681Z,25.88
2024-05-09T06:02:27.696Z,25.88
2024-05-09T06:03:27.654Z,25.88
2024-05-09T06:04:27.678Z,25.88
2024-05-09T06:05:27.890Z,25.90
2024-05-09T06:06:27.602Z,25.90
2024-05-09T06:07:27.606Z,25.92
2024-05-09T06:08:30.269Z,25.91
2024-05-09T06:09:27.581Z,25.92
2024-05-09T06:10:35.094Z,25.92
2024-05-09T06:11:28.666Z,25.94
2024-05-09T06:12:27.631Z,25.95
2024-05-09T06:13:27.540Z,25.97
2024-05-09T06:14:27.714Z,25.97
2024-05-09T06:15:27.523Z,26.00
2024-05-09T06:16:27.559Z,25.98
2024-05-09T06:17:27.634Z,26.00
2024-05-09T06:18:27.667Z,25.98
2024-05-09T06:19:27.596Z,25.98
2024-05-09T06:20:34.951Z,26.00
2024-05-09T06:21:28.572Z,25.97
2024-05-09T06:22:27.524Z,26.00
2024-05-09T06:23:28.075Z,26.00
2024-05-09T06:24:27.507Z,26.01
2024-05-09T06:25:27.480Z,26.00
2024-05-09T06:26:27.506Z,26.00
2024-05-09T06:27:27.486Z,26.02
2024-05-09T06:28:27.507Z,26.04
2024-05-09T06:29:27.715Z,26.04
2024-05-09T06:30:36.587Z,26.05
2024-05-09T06:31:28.448Z,26.05
2024-05-09T06:32:27.563Z,26.07
2024-05-09T06:33:27.678Z,26.07
2024-05-09T06:34:27.535Z,26.07
2024-05-09T06:35:27.553Z,26.07
2024-05-09T06:36:27.460Z,26.05
2024-05-09T06:37:27.460Z,26.07
2024-05-09T06:38:27.680Z,26.08
2024-05-09T06:39:27.480Z,26.07
2024-05-09T06:40:35.781Z,26.09
2024-05-09T06:41:28.559Z,26.09
2024-05-09T06:42:27.516Z,26.08
2024-05-09T06:43:27.522Z,26.07
2024-05-09T06:44:27.701Z,26.09
2024-05-09T06:45:27.519Z,26.11
2024-05-09T06:46:27.521Z,26.11
2024-05-09T06:47:27.617Z,26.12
2024-05-09T06:48:27.693Z,26.09
2024-05-09T06:49:27.621Z,26.08
2024-05-09T06:50:31.220Z,26.11
2024-05-09T06:51:28.581Z,26.11
2024-05-09T06:52:27.566Z,26.12
2024-05-09T06:53:27.597Z,26.11
2024-05-09T06:54:27.587Z,26.09
2024-05-09T06:55:27.613Z,26.11
2024-05-09T06:56:27.625Z,26.14
2024-05-09T06:57:27.602Z,26.12
2024-05-09T06:58:27.624Z,26.12
2024-05-09T06:59:27.656Z,26.14
2024-05-09T07:00:35.480Z,26.15
2024-05-09T07:01:28.837Z,26.15
2024-05-09T07:02:28.627Z,26.09
2024-05-09T07:03:27.863Z,26.17
2024-05-09T07:04:27.774Z,26.15
2024-05-09T07:05:28.656Z,26.14
2024-05-09T07:06:27.691Z,26.17
2024-05-09T07:07:27.700Z,26.17
2024-05-09T07:08:27.791Z,26.17
2024-05-09T07:09:27.715Z,26.12
2024-05-09T07:10:32.916Z,26.14
2024-05-09T07:11:28.780Z,26.14
2024-05-09T07:12:27.794Z,26.15
2024-05-09T07:13:27.742Z,26.14
2024-05-09T07:14:27.784Z,26.17
2024-05-09T07:15:27.718Z,26.15
2024-05-09T07:16:27.747Z,26.15
2024-05-09T07:17:27.925Z,26.20
2024-05-09T07:18:28.056Z,26.14
2024-05-09T07:19:27.977Z,26.17
2024-05-09T07:20:34.116Z,26.17
2024-05-09T07:21:28.761Z,26.15
2024-05-09T07:22:27.765Z,26.14
2024-05-09T07:23:27.817Z,26.18
2024-05-09T07:24:27.785Z,26.18
2024-05-09T07:25:27.787Z,26.21
2024-05-09T07:26:27.896Z,26.21
2024-05-09T07:27:27.790Z,26.22
2024-05-09T07:28:27.792Z,26.25
2024-05-09T07:29:27.958Z,26.24
2024-05-09T07:30:33.230Z,26.25
2024-05-09T07:31:28.816Z,26.24
2024-05-09T07:32:27.994Z,26.27
2024-05-09T07:33:27.898Z,26.28
2024-05-09T07:34:27.922Z,26.30
2024-05-09T07:35:28.045Z,26.28
2024-05-09T07:36:27.824Z,26.30
2024-05-09T07:37:27.843Z,26.30
2024-05-09T07:38:27.863Z,26.31
2024-05-09T07:39:27.811Z,26.34
2024-05-09T07:40:34.590Z,26.30
2024-05-09T07:41:28.926Z,26.34
2024-05-09T07:42:27.832Z,26.34
2024-05-09T07:43:27.847Z,26.34
2024-05-09T07:44:27.953Z,26.35
2024-05-09T07:45:44.964Z,26.35
2024-05-09T07:47:36.814Z,26.36
2024-05-09T07:48:57.151Z,26.34
2024-05-09T07:50:01.059Z,26.38
2024-05-09T07:53:32.389Z,26.39
2024-05-09T07:53:39.981Z,26.39
2024-05-09T07:54:28.941Z,26.39
2024-05-09T07:55:28.029Z,26.39
2024-05-09T07:56:28.218Z,26.39
2024-05-09T07:57:27.862Z,26.41
2024-05-09T07:58:28.039Z,26.41
2024-05-09T07:59:27.814Z,26.41
2024-05-09T08:00:31.471Z,26.41
2024-05-09T08:01:27.935Z,26.44
2024-05-09T08:02:27.960Z,26.42
2024-05-09T08:03:27.915Z,26.45
2024-05-09T08:04:27.789Z,26.45
2024-05-09T08:05:27.906Z,26.45
2024-05-09T08:06:27.766Z,26.46
2024-05-09T08:07:27.691Z,26.46
2024-05-09T08:08:27.691Z,26.48
2024-05-09T08:09:27.743Z,26.48
2024-05-09T08:10:29.168Z,26.46
2024-05-09T08:11:27.664Z,26.45
2024-05-09T08:12:27.636Z,26.49
2024-05-09T08:13:27.626Z,26.52
2024-05-09T08:14:27.569Z,26.49
2024-05-09T08:15:27.642Z,26.49
2024-05-09T08:16:27.725Z,26.51
2024-05-09T08:17:27.624Z,26.49
2024-05-09T08:18:27.677Z,26.49
2024-05-09T08:19:27.579Z,26.53
2024-05-09T08:20:33.411Z,26.51
2024-05-09T08:21:28.511Z,26.53
2024-05-09T08:22:27.458Z,26.52
2024-05-09T08:23:27.465Z,26.53
2024-05-09T08:24:28.087Z,26.53
2024-05-09T08:25:27.519Z,26.49
2024-05-09T08:26:27.415Z,26.51
2024-05-09T08:27:27.437Z,26.51
2024-05-09T08:28:27.455Z,26.52
2024-05-09T08:29:27.390Z,26.51
2024-05-09T08:30:33.659Z,26.49
2024-05-09T08:31:28.570Z,26.52
2024-05-09T08:32:27.560Z,26.51
2024-05-09T08:33:27.633Z,26.49
2024-05-09T08:34:27.528Z,26.49
2024-05-09T08:35:27.376Z,26.48
2024-05-09T08:36:27.420Z,26.48
2024-05-09T08:37:31.093Z,26.49
2024-05-09T08:38:28.361Z,26.49
2024-05-09T08:39:27.354Z,26.46
2024-05-09T08:40:33.605Z,26.48
2024-05-09T08:41:28.325Z,26.49
2024-05-09T08:42:27.293Z,26.46
2024-05-09T08:43:27.334Z,26.51
2024-05-09T08:44:27.262Z,26.48
2024-05-09T08:45:27.332Z,26.49
2024-05-09T08:46:27.381Z,26.52
2024-05-09T08:47:27.361Z,26.51
2024-05-09T08:48:27.379Z,26.53
2024-05-09T08:49:27.294Z,26.53
2024-05-09T08:50:35.608Z,26.56
2024-05-09T08:51:28.283Z,26.56
2024-05-09T08:52:27.174Z,26.55
2024-05-09T08:53:27.163Z,26.58
2024-05-09T08:54:27.201Z,26.58
2024-05-09T08:55:27.134Z,26.56
2024-05-09T08:56:27.124Z,26.59
2024-05-09T08:57:27.209Z,26.59
2024-05-09T08:58:27.131Z,26.58
2024-05-09T08:59:27.115Z,26.60
2024-05-09T09:00:34.138Z,26.59
2024-05-09T09:01:28.171Z,26.60
2024-05-09T09:02:27.168Z,26.59
2024-05-09T09:03:27.194Z,26.63
2024-05-09T09:04:27.112Z,26.63
2024-05-09T09:05:27.291Z,26.60
2024-05-09T09:06:27.147Z,26.65
2024-05-09T09:07:27.159Z,26.62
2024-05-09T09:08:26.966Z,26.62
2024-05-09T09:09:27.071Z,26.62
2024-05-09T09:10:31.994Z,26.65
2024-05-09T09:11:27.975Z,26.62
2024-05-09T09:12:26.951Z,26.60
2024-05-09T09:13:26.910Z,26.60
2024-05-09T09:14:26.886Z,26.60
2024-05-09T09:15:27.006Z,26.59
2024-05-09T09:16:26.922Z,26.60
2024-05-09T09:17:26.930Z,26.60
2024-05-09T09:18:27.327Z,26.62
2024-05-09T09:19:26.976Z,26.62
2024-05-09T09:20:33.984Z,26.62
2024-05-09T09:21:27.811Z,26.62
2024-05-09T09:22:26.801Z,26.66
2024-05-09T09:23:26.744Z,26.62
2024-05-09T09:24:26.808Z,26.66
2024-05-09T09:25:26.733Z,26.65
2024-05-09T09:26:26.711Z,26.68
2024-05-09T09:27:26.738Z,26.68
2024-05-09T09:28:26.690Z,26.68
2024-05-09T09:29:26.678Z,26.68
2024-05-09T09:30:35.360Z,26.66
2024-05-09T09:31:27.828Z,26.69
2024-05-09T09:32:26.752Z,26.69
2024-05-09T09:33:26.760Z,26.69
2024-05-09T09:34:26.735Z,26.69
2024-05-09T09:35:26.648Z,26.72
2024-05-09T09:36:26.646Z,26.72
2024-05-09T09:37:26.628Z,26.72
2024-05-09T09:38:26.591Z,26.72
2024-05-09T09:39:26.574Z,26.72
2024-05-09T09:40:31.967Z,26.73
2024-05-09T09:41:27.611Z,26.72
2024-05-09T09:42:26.607Z,26.73
2024-05-09T09:43:26.668Z,26.75
2024-05-09T09:44:26.555Z,26.72
2024-05-09T09:45:26.578Z,26.75
2024-05-09T09:46:26.708Z,26.71
2024-05-09T09:47:26.593Z,26.72
2024-05-09T09:48:26.572Z,26.71
2024-05-09T09:49:26.539Z,26.72
2024-05-09T09:50:33.505Z,26.71
2024-05-09T09:51:27.590Z,26.71
2024-05-09T09:52:26.517Z,26.73
2024-05-09T09:53:26.441Z,26.72
2024-05-09T09:54:26.436Z,26.72
2024-05-09T09:55:26.450Z,26.68
2024-05-09T09:56:26.371Z,26.72
2024-05-09T09:57:26.370Z,26.72
2024-05-09T09:58:26.668Z,26.71
2024-05-09T09:59:26.307Z,26.71
2024-05-09T10:00:30.698Z,26.69
2024-05-09T10:01:27.416Z,26.69
2024-05-09T10:02:26.398Z,26.71
2024-05-09T10:03:26.397Z,26.71
2024-05-09T10:04:26.353Z,26.69
2024-05-09T10:05:26.578Z,26.71
2024-05-09T10:06:26.224Z,26.71
2024-05-09T10:07:26.236Z,26.71
2024-05-09T10:08:26.180Z,26.69
2024-05-09T10:09:26.173Z,26.71
2024-05-09T10:10:32.154Z,26.69
2024-05-09T10:11:27.307Z,26.68
2024-05-09T10:12:26.238Z,26.69
2024-05-09T10:13:26.337Z,26.68
2024-05-09T10:14:26.168Z,26.68
2024-05-09T10:15:26.149Z,26.69
2024-05-09T10:16:26.186Z,26.65
2024-05-09T10:17:26.179Z,26.68
2024-05-09T10:18:29.217Z,26.68
2024-05-09T10:19:27.178Z,26.68
2024-05-09T10:20:30.848Z,26.68
2024-05-09T10:21:27.077Z,26.66
2024-05-09T10:22:26.119Z,26.68
2024-05-09T10:23:26.014Z,26.66
2024-05-09T10:24:25.991Z,26.65
2024-05-09T10:25:26.006Z,26.68
2024-05-09T10:26:25.972Z,26.68
2024-05-09T10:27:25.957Z,26.69
2024-05-09T10:28:25.964Z,26.69
2024-05-09T10:29:25.930Z,26.66
2024-05-09T10:30:33.672Z,26.71
2024-05-09T10:31:27.004Z,26.68
2024-05-09T10:32:26.010Z,26.71
2024-05-09T10:33:26.022Z,26.71
2024-05-09T10:34:26.256Z,26.71
2024-05-09T10:35:25.913Z,26.73
2024-05-09T10:36:25.897Z,26.68
2024-05-09T10:37:25.932Z,26.72
2024-05-09T10:38:25.863Z,26.72
2024-05-09T10:39:25.921Z,26.75
2024-05-09T10:40:31.056Z,26.75
2024-05-09T10:41:26.896Z,26.76
2024-05-09T10:42:25.887Z,26.75
2024-05-09T10:43:25.898Z,26.81
2024-05-09T10:44:25.803Z,26.79
2024-05-09T10:45:25.820Z,26.78
2024-05-09T10:46:25.839Z,26.78
2024-05-09T10:47:25.870Z,26.82
2024-05-09T10:48:25.847Z,26.83
2024-05-09T10:49:25.930Z,26.83
2024-05-09T10:50:29.103Z,26.83
2024-05-09T10:51:26.827Z,26.85
2024-05-09T10:52:25.795Z,26.86
2024-05-09T10:53:25.778Z,26.86
2024-05-09T10:54:25.759Z,26.86
2024-05-09T10:55:25.899Z,26.87
2024-05-09T10:56:25.727Z,26.89
2024-05-09T10:57:25.703Z,26.92
2024-05-09T10:58:25.686Z,26.92
2024-05-09T10:59:25.710Z,26.93
2024-05-09T11:00:33.084Z,26.93
2024-05-09T11:01:26.792Z,26.93
2024-05-09T11:02:25.876Z,26.95
2024-05-09T11:03:25.859Z,26.95
2024-05-09T11:04:25.720Z,26.95
2024-05-09T11:05:25.758Z,26.95
2024-05-09T11:06:25.658Z,26.99
2024-05-09T11:07:25.665Z,26.96
2024-05-09T11:08:25.598Z,26.97
2024-05-09T11:09:25.581Z,26.99
2024-05-09T11:10:33.330Z,26.97
2024-05-09T11:11:26.666Z,27.00
2024-05-09T11:12:25.642Z,27.03
2024-05-09T11:13:25.646Z,27.03
2024-05-09T11:14:25.592Z,27.04
2024-05-09T11:15:25.564Z,27.04
2024-05-09T11:16:25.595Z,27.06
2024-05-09T11:17:25.682Z,27.07
2024-05-09T11:18:26.728Z,27.07
2024-05-09T11:19:25.732Z,27.11
2024-05-09T11:20:29.695Z,27.11
2024-05-09T11:21:25.532Z,27.14
2024-05-09T11:22:25.610Z,27.09
2024-05-09T11:23:25.482Z,27.11
2024-05-09T11:24:25.477Z,27.13
2024-05-09T11:25:25.573Z,27.14
2024-05-09T11:26:25.568Z,27.14
2024-05-09T11:27:25.415Z,27.14
2024-05-09T11:28:25.455Z,27.16
2024-05-09T11:29:25.375Z,27.17
2024-05-09T11:30:30.172Z,27.16
2024-05-09T11:31:26.504Z,27.20
2024-05-09T11:32:25.549Z,27.18
2024-05-09T11:33:25.343Z,27.18
2024-05-09T11:34:25.388Z,27.22
2024-05-09T11:35:25.243Z,27.23
2024-05-09T11:36:25.291Z,27.20
2024-05-09T11:37:25.322Z,27.22
2024-05-09T11:38:25.245Z,27.23
2024-05-09T11:39:25.279Z,27.23
2024-05-09T11:40:28.643Z,27.24
2024-05-09T11:41:26.190Z,27.26
2024-05-09T11:42:25.176Z,27.26
2024-05-09T11:43:25.182Z,27.26
2024-05-09T11:44:25.111Z,27.26
2024-05-09T11:45:25.106Z,27.26
2024-05-09T11:46:25.142Z,27.26
2024-05-09T11:47:25.228Z,27.27
2024-05-09T11:48:25.471Z,27.24
2024-05-09T11:49:27.029Z,27.24
2024-05-09T11:50:29.979Z,27.26
2024-05-09T11:51:26.036Z,27.29
2024-05-09T11:52:25.036Z,27.29
2024-05-09T11:53:24.990Z,27.27
2024-05-09T11:54:24.941Z,27.29
2024-05-09T11:55:27.549Z,27.29
2024-05-09T11:56:24.927Z,27.29
2024-05-09T11:57:25.682Z,27.30
2024-05-09T11:58:24.929Z,27.29
2024-05-09T11:59:24.890Z,27.30
2024-05-09T12:00:33.206Z,27.30
2024-05-09T12:01:27.918Z,27.29
2024-05-09T12:02:24.839Z,27.30
2024-05-09T12:03:24.846Z,27.32
2024-05-09T12:04:24.915Z,27.30
2024-05-09T12:05:24.892Z,27.30
2024-05-09T12:06:24.693Z,27.30
2024-05-09T12:07:24.732Z,27.33
2024-05-09T12:08:24.674Z,27.30
2024-05-09T12:09:24.657Z,27.32
2024-05-09T12:10:32.121Z,27.33
2024-05-09T12:11:25.640Z,27.33
2024-05-09T12:12:24.586Z,27.34
2024-05-09T12:13:24.718Z,27.34
2024-05-09T12:14:24.557Z,27.36
2024-05-09T12:15:24.535Z,27.32
2024-05-09T12:16:24.867Z,27.34
2024-05-09T12:17:24.604Z,27.37
2024-05-09T12:18:24.553Z,27.34
2024-05-09T12:19:24.604Z,27.34
2024-05-09T12:20:32.388Z,27.36
2024-05-09T12:21:25.478Z,27.36
2024-05-09T12:22:24.504Z,27.37
2024-05-09T12:23:24.442Z,27.36
2024-05-09T12:24:24.419Z,27.36
2024-05-09T12:25:24.434Z,27.34
2024-05-09T12:26:24.378Z,27.33
2024-05-09T12:27:24.377Z,27.33
2024-05-09T12:28:24.623Z,27.34
2024-05-09T12:29:24.319Z,27.30
2024-05-09T12:30:33.263Z,27.32
2024-05-09T12:31:25.452Z,27.33
2024-05-09T12:32:24.400Z,27.33
2024-05-09T12:33:24.534Z,27.33
2024-05-09T12:34:24.326Z,27.36
2024-05-09T12:35:24.198Z,27.34
2024-05-09T12:36:24.204Z,27.34
2024-05-09T12:37:24.231Z,27.36
2024-05-09T12:38:24.182Z,27.38
2024-05-09T12:39:24.170Z,27.36
2024-05-09T12:40:31.851Z,27.37
2024-05-09T12:41:25.123Z,27.40
2024-05-09T12:42:27.459Z,27.40
2024-05-09T12:43:24.194Z,27.40
2024-05-09T12:44:24.077Z,27.38
2024-05-09T12:45:24.056Z,27.38
2024-05-09T12:46:24.131Z,27.38
2024-05-09T12:47:24.119Z,27.41
2024-05-09T12:48:24.189Z,27.43
2024-05-09T12:49:24.253Z,27.41
2024-05-09T12:50:31.064Z,27.41
2024-05-09T12:51:25.041Z,27.41
2024-05-09T12:52:24.035Z,27.44
2024-05-09T12:53:24.071Z,27.46
2024-05-09T12:54:24.137Z,27.44
2024-05-09T12:55:24.079Z,27.38
2024-05-09T12:56:24.070Z,27.43
2024-05-09T12:57:24.111Z,27.43
2024-05-09T12:58:24.510Z,27.40
2024-05-09T12:59:24.049Z,27.41